createdAt,value
2023-02-07T00:04:17.472Z,-7.70
2023-02-07T00:09:20.063Z,-8.04
2023-02-07T00:14:22.680Z,-7.63
2023-02-07T00:19:25.387Z,-8.06
2023-02-07T00:24:27.975Z,-7.57
2023-02-07T00:29:30.923Z,-7.88
2023-02-07T00:34:36.206Z,-7.79
2023-02-07T00:39:40.719Z,-8.14
2023-02-07T00:44:43.406Z,-8.33
2023-02-07T00:49:46.000Z,-8.24
2023-02-07T00:54:48.636Z,-8.34
2023-02-07T00:59:51.160Z,-8.11
2023-02-07T01:04:53.743Z,-8.37
2023-02-07T01:09:56.352Z,-8.42
2023-02-07T01:14:59.481Z,-8.37
2023-02-07T01:20:02.118Z,-8.40
2023-02-07T01:25:06.772Z,-8.26
2023-02-07T01:30:09.977Z,-8.54
2023-02-07T01:35:12.963Z,-8.36
2023-02-07T01:40:15.840Z,-8.62
2023-02-07T01:45:40.457Z,-8.58
2023-02-07T01:50:48.156Z,-8.36
2023-02-07T01:55:54.109Z,-8.59
2023-02-07T02:00:57.700Z,-8.65
2023-02-07T02:06:00.593Z,-8.60
2023-02-07T02:22:16.119Z,-9.23
2023-02-07T02:48:11.452Z,-9.07
2023-02-07T02:53:15.231Z,-9.13
2023-02-07T02:58:37.617Z,-9.14
2023-02-07T03:09:25.690Z,-9.54
2023-02-07T03:14:45.780Z,-9.55
2023-02-07T03:19:55.772Z,-9.62
2023-02-07T03:25:01.640Z,-9.41
2023-02-07T03:30:12.685Z,-9.48
2023-02-07T03:35:23.456Z,-9.17
2023-02-07T03:40:29.824Z,-9.23
2023-02-07T03:45:32.344Z,-8.85
2023-02-07T03:50:35.039Z,-9.25
2023-02-07T03:55:38.066Z,-9.35
2023-02-07T04:00:41.260Z,-9.04
2023-02-07T04:05:46.253Z,-8.83
2023-02-07T04:10:58.685Z,-9.04
2023-02-07T04:16:01.331Z,-9.13
2023-02-07T04:21:06.648Z,-9.00
2023-02-07T04:26:09.252Z,-8.93
2023-02-07T04:31:11.960Z,-9.04
2023-02-07T04:36:15.390Z,-8.98
2023-02-07T04:41:18.175Z,-8.90
2023-02-07T04:46:20.840Z,-8.71
2023-02-07T04:51:23.975Z,-8.56
2023-02-07T04:56:26.563Z,-8.56
2023-02-07T05:01:29.190Z,-8.72
2023-02-07T05:06:31.895Z,-8.52
2023-02-07T05:11:34.481Z,-8.83
2023-02-07T05:16:37.355Z,-9.45
2023-02-07T05:21:39.982Z,-9.53
2023-02-07T05:26:42.652Z,-9.65
2023-02-07T05:32:06.947Z,-9.50
2023-02-07T05:37:09.947Z,-9.59
2023-02-07T05:42:12.530Z,-9.35
2023-02-07T05:47:15.238Z,-9.33
2023-02-07T05:52:18.244Z,-9.56
2023-02-07T05:57:20.967Z,-9.39
2023-02-07T06:02:24.021Z,-9.39
2023-02-07T06:07:26.929Z,-9.24
2023-02-07T06:12:38.047Z,-9.04
2023-02-07T06:17:57.833Z,-9.21
2023-02-07T06:23:00.474Z,-8.91
2023-02-07T06:28:03.475Z,-8.85
2023-02-07T06:33:06.197Z,-8.85
2023-02-07T06:38:08.800Z,-8.60
2023-02-07T06:43:12.301Z,-8.61
2023-02-07T06:48:14.988Z,-8.29
2023-02-07T06:53:17.704Z,-8.15
2023-02-07T06:58:20.296Z,-7.92
2023-02-07T07:03:27.291Z,-7.71
2023-02-07T07:08:30.049Z,-7.49
2023-02-07T07:13:33.305Z,-7.45
2023-02-07T07:18:41.964Z,-7.31
2023-02-07T07:23:46.253Z,-7.22
2023-02-07T07:28:50.997Z,-6.70
2023-02-07T07:40:10.174Z,-6.55
2023-02-07T07:45:13.706Z,-6.46
2023-02-07T07:50:16.441Z,-6.20
2023-02-07T07:55:20.512Z,-5.91
2023-02-07T08:00:23.330Z,-6.00
2023-02-07T08:05:26.195Z,-6.01
2023-02-07T08:10:29.589Z,-5.82
2023-02-07T08:15:34.030Z,-5.59
2023-02-07T08:20:37.344Z,-5.67
2023-02-07T08:25:42.435Z,-5.47
2023-02-07T08:30:47.822Z,-5.42
2023-02-07T08:35:52.776Z,-5.46
2023-02-07T08:40:55.454Z,-5.00
2023-02-07T08:45:58.488Z,-5.16
2023-02-07T08:51:06.926Z,-5.07
2023-02-07T08:56:10.165Z,-5.14
2023-02-07T09:01:13.590Z,-4.90
2023-02-07T09:06:16.862Z,-5.10
2023-02-07T09:11:23.421Z,-4.72
2023-02-07T09:16:27.079Z,-4.63
2023-02-07T09:21:31.747Z,-4.58
2023-02-07T09:26:35.467Z,-4.38
2023-02-07T09:31:39.456Z,-4.26
2023-02-07T09:36:44.107Z,-4.13
2023-02-07T09:47:26.840Z,-3.66
2023-02-07T09:52:37.497Z,-3.55
2023-02-07T09:57:50.329Z,-3.48
2023-02-07T10:03:19.253Z,-3.26
2023-02-07T10:08:24.783Z,-3.36
2023-02-07T10:13:54.387Z,-3.31
2023-02-07T10:19:37.086Z,-2.96
2023-02-07T10:30:17.120Z,-2.32
2023-02-07T10:40:44.030Z,-2.63
2023-02-07T10:45:51.878Z,-2.91
2023-02-07T10:50:59.809Z,-2.93
2023-02-07T10:56:02.620Z,-3.24
2023-02-07T11:01:10.061Z,-3.35
2023-02-07T11:06:30.167Z,-3.61
2023-02-07T11:11:38.426Z,-3.36
2023-02-07T11:16:44.583Z,-3.31
2023-02-07T11:21:49.517Z,-2.98
2023-02-07T11:32:05.813Z,-2.63
2023-02-07T11:42:33.111Z,-2.45
2023-02-07T11:47:38.326Z,-2.36
2023-02-07T11:53:04.997Z,-1.99
2023-02-07T11:58:37.941Z,-1.81
2023-02-07T12:03:48.159Z,-1.94
2023-02-07T12:08:52.570Z,-1.74
2023-02-07T12:14:03.187Z,-1.42
2023-02-07T12:19:13.057Z,0.26
2023-02-07T12:34:54.702Z,0.17
2023-02-07T12:40:26.845Z,0.28
2023-02-07T12:46:03.148Z,0.85
2023-02-07T12:56:52.334Z,0.63
2023-02-07T13:28:14.413Z,-2.45
2023-02-07T13:44:16.194Z,-3.22
2023-02-07T14:05:26.935Z,-4.29
2023-02-07T14:10:41.372Z,-4.50
2023-02-07T14:21:03.696Z,-4.77
2023-02-07T14:26:49.546Z,-4.85
2023-02-07T14:32:02.372Z,-5.03
2023-02-07T14:37:23.311Z,-5.22
2023-02-07T14:42:26.119Z,-5.13
2023-02-07T14:47:29.916Z,-5.31
2023-02-07T14:52:39.632Z,-5.58
2023-02-07T15:03:12.315Z,-5.59
2023-02-07T15:08:20.447Z,-5.94
2023-02-07T15:13:28.820Z,-5.89
2023-02-07T15:18:35.153Z,-6.00
2023-02-07T15:23:38.955Z,-6.09
2023-02-07T15:28:45.696Z,-6.08
2023-02-07T15:39:02.199Z,-6.20
2023-02-07T15:44:07.885Z,-6.29
2023-02-07T15:49:10.489Z,-6.35
2023-02-07T15:54:16.492Z,-6.41
2023-02-07T15:59:23.571Z,-6.51
2023-02-07T16:04:29.030Z,-6.66
2023-02-07T16:09:38.186Z,-6.73
2023-02-07T16:14:41.386Z,-6.80
2023-02-07T16:19:46.401Z,-6.96
2023-02-07T16:24:51.397Z,-7.04
2023-02-07T16:29:55.480Z,-7.20
2023-02-07T16:35:00.133Z,-7.20
2023-02-07T16:40:02.980Z,-7.20
2023-02-07T16:45:06.241Z,-7.33
2023-02-07T16:50:16.115Z,-7.39
2023-02-07T16:55:20.760Z,-7.55
2023-02-07T17:00:25.669Z,-7.67
2023-02-07T17:05:28.662Z,-7.72
2023-02-07T17:10:32.855Z,-7.82
2023-02-07T17:15:36.203Z,-7.93
2023-02-07T17:20:39.378Z,-7.89
2023-02-07T17:25:44.306Z,-8.00
2023-02-07T17:30:47.093Z,-8.00
2023-02-07T17:35:50.472Z,-8.13
2023-02-07T17:40:53.751Z,-8.18
2023-02-07T17:45:56.724Z,-8.23
2023-02-07T17:50:59.369Z,-8.14
2023-02-07T17:56:02.038Z,-8.34
2023-02-07T18:01:05.987Z,-8.26
2023-02-07T18:06:14.429Z,-8.27
2023-02-07T18:11:17.947Z,-8.19
2023-02-07T18:16:23.381Z,-8.39
2023-02-07T18:21:26.826Z,-8.39
2023-02-07T18:26:29.469Z,-8.54
2023-02-07T18:31:32.301Z,-8.40
2023-02-07T18:36:40.685Z,-8.49
2023-02-07T18:41:44.114Z,-8.60
2023-02-07T18:46:47.299Z,-8.70
2023-02-07T18:51:54.500Z,-8.73
2023-02-07T18:56:58.843Z,-8.75
2023-02-07T19:02:05.066Z,-8.77
2023-02-07T19:07:07.687Z,-8.81
2023-02-07T19:12:11.008Z,-8.85
2023-02-07T19:17:15.798Z,-9.01
2023-02-07T19:22:29.938Z,-8.84
2023-02-07T19:27:36.461Z,-9.12
2023-02-07T19:32:39.231Z,-9.05
2023-02-07T19:37:41.708Z,-9.15
2023-02-07T19:42:45.701Z,-9.09
2023-02-07T19:47:48.208Z,-9.06
2023-02-07T19:52:51.244Z,-9.28
2023-02-07T19:57:54.654Z,-9.26
2023-02-07T20:02:58.760Z,-9.41
2023-02-07T20:08:01.628Z,-9.29
2023-02-07T20:13:04.162Z,-9.37
2023-02-07T20:18:07.289Z,-9.32
2023-02-07T20:23:10.700Z,-9.31
2023-02-07T20:28:13.628Z,-9.45
2023-02-07T20:33:17.410Z,-9.59
2023-02-07T20:38:19.984Z,-9.58
2023-02-07T20:43:22.740Z,-9.57
2023-02-07T20:48:25.343Z,-9.53
2023-02-07T20:53:27.842Z,-9.45
2023-02-07T20:58:30.315Z,-9.53
2023-02-07T21:03:32.833Z,-9.58
2023-02-07T21:08:36.737Z,-9.60
2023-02-07T21:13:39.876Z,-9.62
2023-02-07T21:18:47.758Z,-9.73
2023-02-07T21:23:51.310Z,-9.57
2023-02-07T21:28:59.091Z,-9.70
2023-02-07T21:34:02.333Z,-9.82
2023-02-07T21:39:09.267Z,-9.85
2023-02-07T21:44:13.278Z,-9.85
2023-02-07T21:49:17.568Z,-9.87
2023-02-07T21:54:20.115Z,-9.85
2023-02-07T21:59:22.972Z,-10.02
2023-02-07T22:04:25.629Z,-9.94
2023-02-07T22:09:28.222Z,-9.92
2023-02-07T22:14:30.830Z,-9.91
2023-02-07T22:19:33.447Z,-9.93
2023-02-07T22:24:35.994Z,-9.83
2023-02-07T22:29:38.694Z,-9.97
2023-02-07T22:34:42.511Z,-9.94
2023-02-07T22:39:45.209Z,-9.92
2023-02-07T22:44:47.858Z,-10.08
2023-02-07T22:49:50.352Z,-10.03
2023-02-07T22:54:52.845Z,-10.00
2023-02-07T23:00:00.744Z,-10.11
2023-02-07T23:05:04.697Z,-10.10
2023-02-07T23:10:09.422Z,-10.22
2023-02-07T23:15:12.068Z,-10.11
2023-02-07T23:20:15.152Z,-10.17
2023-02-07T23:25:17.939Z,-10.16
2023-02-07T23:30:20.481Z,-10.30
2023-02-07T23:35:23.169Z,-10.32
2023-02-07T23:40:25.948Z,-10.38
2023-02-07T23:45:28.718Z,-10.41
2023-02-07T23:50:31.320Z,-10.40
2023-02-07T23:55:33.922Z,-10.42
